sensor_id;sensor_type;location;lat;lon;timestamp;P1;durP1;ratioP1;P2;durP2;ratioP2
61756;SDS011;57225;61.460;24.060;2022-09-16T00:00:05;1.35;;;0.75;;
61756;SDS011;57225;61.460;24.060;2022-09-16T00:02:51;1.38;;;0.50;;
61756;SDS011;57225;61.460;24.060;2022-09-16T00:05:43;1.35;;;0.90;;
61756;SDS011;57225;61.460;24.060;2022-09-16T00:08:29;1.55;;;0.80;;
61756;SDS011;57225;61.460;24.060;2022-09-16T00:11:15;0.63;;;0.63;;
61756;SDS011;57225;61.460;24.060;2022-09-16T00:14:00;1.45;;;0.52;;
61756;SDS011;57225;61.460;24.060;2022-09-16T00:16:46;1.48;;;0.73;;
61756;SDS011;57225;61.460;24.060;2022-09-16T00:19:30;1.33;;;0.80;;
61756;SDS011;57225;61.460;24.060;2022-09-16T00:22:15;0.90;;;0.45;;
61756;SDS011;57225;61.460;24.060;2022-09-16T00:25:00;3.53;;;0.90;;
61756;SDS011;57225;61.460;24.060;2022-09-16T00:27:46;2.35;;;1.08;;
61756;SDS011;57225;61.460;24.060;2022-09-16T00:30:32;3.40;;;1.10;;
61756;SDS011;57225;61.460;24.060;2022-09-16T00:33:17;2.40;;;1.20;;
61756;SDS011;57225;61.460;24.060;2022-09-16T00:36:12;4.10;;;1.30;;
61756;SDS011;57225;61.460;24.060;2022-09-16T00:38:59;2.72;;;1.58;;
61756;SDS011;57225;61.460;24.060;2022-09-16T00:41:43;3.15;;;1.80;;
61756;SDS011;57225;61.460;24.060;2022-09-16T00:47:56;2.13;;;1.23;;
61756;SDS011;57225;61.460;24.060;2022-09-16T00:50:46;2.65;;;1.35;;
61756;SDS011;57225;61.460;24.060;2022-09-16T00:57:02;2.15;;;1.50;;
61756;SDS011;57225;61.460;24.060;2022-09-16T00:59:51;2.00;;;1.45;;
61756;SDS011;57225;61.460;24.060;2022-09-16T01:02:36;1.77;;;1.45;;
61756;SDS011;57225;61.460;24.060;2022-09-16T01:05:22;1.35;;;1.23;;
61756;SDS011;57225;61.460;24.060;2022-09-16T01:08:09;1.92;;;1.33;;
61756;SDS011;57225;61.460;24.060;2022-09-16T01:10:53;4.60;;;1.58;;
61756;SDS011;57225;61.460;24.060;2022-09-16T01:13:38;6.45;;;2.30;;
61756;SDS011;57225;61.460;24.060;2022-09-16T01:16:32;3.47;;;1.80;;
61756;SDS011;57225;61.460;24.060;2022-09-16T01:22:25;2.80;;;2.00;;
61756;SDS011;57225;61.460;24.060;2022-09-16T01:37:38;5.57;;;2.40;;
61756;SDS011;57225;61.460;24.060;2022-09-16T01:40:55;4.80;;;2.10;;
61756;SDS011;57225;61.460;24.060;2022-09-16T01:43:48;3.33;;;2.00;;
61756;SDS011;57225;61.460;24.060;2022-09-16T01:49:39;2.53;;;1.40;;
61756;SDS011;57225;61.460;24.060;2022-09-16T01:52:36;1.98;;;1.45;;
61756;SDS011;57225;61.460;24.060;2022-09-16T01:55:37;3.40;;;1.50;;
61756;SDS011;57225;61.460;24.060;2022-09-16T02:01:35;4.10;;;1.60;;
61756;SDS011;57225;61.460;24.060;2022-09-16T02:04:51;3.73;;;1.47;;
61756;SDS011;57225;61.460;24.060;2022-09-16T02:07:39;2.47;;;1.42;;
61756;SDS011;57225;61.460;24.060;2022-09-16T02:10:29;3.55;;;1.38;;
61756;SDS011;57225;61.460;24.060;2022-09-16T02:13:19;1.85;;;1.30;;
61756;SDS011;57225;61.460;24.060;2022-09-16T02:16:19;1.40;;;1.30;;
61756;SDS011;57225;61.460;24.060;2022-09-16T02:19:11;1.65;;;1.10;;
61756;SDS011;57225;61.460;24.060;2022-09-16T02:22:02;1.60;;;1.17;;
61756;SDS011;57225;61.460;24.060;2022-09-16T02:24:51;1.45;;;1.17;;
61756;SDS011;57225;61.460;24.060;2022-09-16T02:27:36;2.78;;;1.35;;
61756;SDS011;57225;61.460;24.060;2022-09-16T02:30:22;2.80;;;1.00;;
61756;SDS011;57225;61.460;24.060;2022-09-16T02:33:07;1.08;;;0.98;;
61756;SDS011;57225;61.460;24.060;2022-09-16T02:35:53;1.90;;;0.85;;
61756;SDS011;57225;61.460;24.060;2022-09-16T02:38:40;2.53;;;1.00;;
61756;SDS011;57225;61.460;24.060;2022-09-16T02:41:29;2.17;;;1.10;;
61756;SDS011;57225;61.460;24.060;2022-09-16T02:44:13;3.35;;;1.10;;
61756;SDS011;57225;61.460;24.060;2022-09-16T02:50:21;5.03;;;1.10;;
61756;SDS011;57225;61.460;24.060;2022-09-16T02:53:17;2.85;;;1.35;;
61756;SDS011;57225;61.460;24.060;2022-09-16T02:56:09;1.30;;;1.15;;
61756;SDS011;57225;61.460;24.060;2022-09-16T02:58:57;1.95;;;1.35;;
61756;SDS011;57225;61.460;24.060;2022-09-16T03:01:43;2.70;;;1.17;;
61756;SDS011;57225;61.460;24.060;2022-09-16T03:04:28;4.15;;;1.30;;
61756;SDS011;57225;61.460;24.060;2022-09-16T03:07:13;5.72;;;1.50;;
61756;SDS011;57225;61.460;24.060;2022-09-16T03:10:01;2.65;;;1.42;;
61756;SDS011;57225;61.460;24.060;2022-09-16T03:19:15;3.13;;;1.80;;
61756;SDS011;57225;61.460;24.060;2022-09-16T03:22:12;3.90;;;1.80;;
61756;SDS011;57225;61.460;24.060;2022-09-16T03:31:03;2.63;;;1.40;;
61756;SDS011;57225;61.460;24.060;2022-09-16T03:33:53;2.78;;;1.23;;
61756;SDS011;57225;61.460;24.060;2022-09-16T03:37:01;2.00;;;1.10;;
61756;SDS011;57225;61.460;24.060;2022-09-16T03:39:51;2.15;;;1.35;;
61756;SDS011;57225;61.460;24.060;2022-09-16T03:42:38;2.10;;;1.10;;
61756;SDS011;57225;61.460;24.060;2022-09-16T03:45:23;3.10;;;1.30;;
61756;SDS011;57225;61.460;24.060;2022-09-16T03:48:08;2.38;;;1.23;;
61756;SDS011;57225;61.460;24.060;2022-09-16T03:50:53;2.35;;;1.20;;
61756;SDS011;57225;61.460;24.060;2022-09-16T03:53:38;2.13;;;1.23;;
61756;SDS011;57225;61.460;24.060;2022-09-16T03:56:23;2.40;;;1.23;;
61756;SDS011;57225;61.460;24.060;2022-09-16T03:59:07;4.95;;;1.27;;
61756;SDS011;57225;61.460;24.060;2022-09-16T04:01:51;1.88;;;1.08;;
61756;SDS011;57225;61.460;24.060;2022-09-16T04:04:36;2.13;;;1.40;;
61756;SDS011;57225;61.460;24.060;2022-09-16T04:07:20;3.25;;;1.48;;
61756;SDS011;57225;61.460;24.060;2022-09-16T04:10:05;2.13;;;1.20;;
61756;SDS011;57225;61.460;24.060;2022-09-16T04:12:50;2.17;;;1.10;;
61756;SDS011;57225;61.460;24.060;2022-09-16T04:15:35;2.63;;;1.10;;
61756;SDS011;57225;61.460;24.060;2022-09-16T04:18:21;1.75;;;0.80;;
61756;SDS011;57225;61.460;24.060;2022-09-16T04:21:05;2.30;;;1.05;;
61756;SDS011;57225;61.460;24.060;2022-09-16T04:23:49;1.48;;;0.85;;
61756;SDS011;57225;61.460;24.060;2022-09-16T04:26:34;1.92;;;0.82;;
61756;SDS011;57225;61.460;24.060;2022-09-16T04:29:19;0.95;;;0.73;;
61756;SDS011;57225;61.460;24.060;2022-09-16T04:32:03;0.88;;;0.60;;
61756;SDS011;57225;61.460;24.060;2022-09-16T04:34:47;1.17;;;0.60;;
61756;SDS011;57225;61.460;24.060;2022-09-16T04:37:32;1.88;;;0.80;;
61756;SDS011;57225;61.460;24.060;2022-09-16T04:40:16;1.92;;;0.70;;
61756;SDS011;57225;61.460;24.060;2022-09-16T04:43:01;1.50;;;0.77;;
61756;SDS011;57225;61.460;24.060;2022-09-16T04:45:45;2.70;;;0.80;;
61756;SDS011;57225;61.460;24.060;2022-09-16T04:48:30;1.73;;;0.60;;
61756;SDS011;57225;61.460;24.060;2022-09-16T04:51:15;1.38;;;0.40;;
61756;SDS011;57225;61.460;24.060;2022-09-16T04:54:00;1.80;;;0.60;;
61756;SDS011;57225;61.460;24.060;2022-09-16T04:56:44;1.30;;;0.55;;
61756;SDS011;57225;61.460;24.060;2022-09-16T04:59:29;2.13;;;0.55;;
61756;SDS011;57225;61.460;24.060;2022-09-16T05:02:13;1.10;;;0.40;;
61756;SDS011;57225;61.460;24.060;2022-09-16T05:04:58;1.75;;;0.70;;
61756;SDS011;57225;61.460;24.060;2022-09-16T05:07:42;1.10;;;0.63;;
61756;SDS011;57225;61.460;24.060;2022-09-16T05:10:27;0.90;;;0.50;;
61756;SDS011;57225;61.460;24.060;2022-09-16T05:13:11;0.80;;;0.60;;
61756;SDS011;57225;61.460;24.060;2022-09-16T05:15:59;1.00;;;0.52;;
61756;SDS011;57225;61.460;24.060;2022-09-16T05:18:48;1.17;;;0.73;;
61756;SDS011;57225;61.460;24.060;2022-09-16T05:21:34;0.70;;;0.43;;
61756;SDS011;57225;61.460;24.060;2022-09-16T05:24:20;1.55;;;0.52;;
61756;SDS011;57225;61.460;24.060;2022-09-16T05:27:04;0.82;;;0.63;;
61756;SDS011;57225;61.460;24.060;2022-09-16T05:29:49;1.13;;;0.65;;
61756;SDS011;57225;61.460;24.060;2022-09-16T05:32:34;0.98;;;0.68;;
61756;SDS011;57225;61.460;24.060;2022-09-16T05:35:19;0.70;;;0.47;;
61756;SDS011;57225;61.460;24.060;2022-09-16T05:38:03;0.77;;;0.68;;
61756;SDS011;57225;61.460;24.060;2022-09-16T05:40:48;0.88;;;0.60;;
61756;SDS011;57225;61.460;24.060;2022-09-16T05:43:32;0.93;;;0.60;;
61756;SDS011;57225;61.460;24.060;2022-09-16T05:46:19;3.17;;;0.77;;
61756;SDS011;57225;61.460;24.060;2022-09-16T05:49:04;1.20;;;0.40;;
61756;SDS011;57225;61.460;24.060;2022-09-16T05:51:48;0.80;;;0.50;;
61756;SDS011;57225;61.460;24.060;2022-09-16T05:54:36;0.73;;;0.47;;
61756;SDS011;57225;61.460;24.060;2022-09-16T05:57:20;1.27;;;0.55;;
61756;SDS011;57225;61.460;24.060;2022-09-16T06:00:06;2.55;;;0.60;;
61756;SDS011;57225;61.460;24.060;2022-09-16T06:02:51;3.60;;;0.43;;
61756;SDS011;57225;61.460;24.060;2022-09-16T06:05:35;0.77;;;0.60;;
61756;SDS011;57225;61.460;24.060;2022-09-16T06:08:20;0.38;;;0.20;;
61756;SDS011;57225;61.460;24.060;2022-09-16T06:11:05;1.00;;;0.63;;
61756;SDS011;57225;61.460;24.060;2022-09-16T06:13:54;1.98;;;0.55;;
61756;SDS011;57225;61.460;24.060;2022-09-16T06:16:40;0.90;;;0.50;;
61756;SDS011;57225;61.460;24.060;2022-09-16T06:19:25;5.72;;;0.60;;
61756;SDS011;57225;61.460;24.060;2022-09-16T06:22:09;0.82;;;0.45;;
61756;SDS011;57225;61.460;24.060;2022-09-16T06:24:54;1.70;;;0.70;;
61756;SDS011;57225;61.460;24.060;2022-09-16T06:27:38;0.60;;;0.40;;
61756;SDS011;57225;61.460;24.060;2022-09-16T06:30:23;1.98;;;0.50;;
61756;SDS011;57225;61.460;24.060;2022-09-16T06:33:07;2.80;;;0.52;;
61756;SDS011;57225;61.460;24.060;2022-09-16T06:35:54;0.75;;;0.43;;
61756;SDS011;57225;61.460;24.060;2022-09-16T06:38:39;0.80;;;0.60;;
61756;SDS011;57225;61.460;24.060;2022-09-16T06:41:24;1.27;;;0.57;;
61756;SDS011;57225;61.460;24.060;2022-09-16T06:44:08;1.10;;;0.30;;
61756;SDS011;57225;61.460;24.060;2022-09-16T06:46:52;1.98;;;0.40;;
61756;SDS011;57225;61.460;24.060;2022-09-16T06:49:37;3.85;;;0.50;;
61756;SDS011;57225;61.460;24.060;2022-09-16T06:52:21;0.75;;;0.43;;
61756;SDS011;57225;61.460;24.060;2022-09-16T06:55:06;1.17;;;0.30;;
61756;SDS011;57225;61.460;24.060;2022-09-16T06:57:50;0.73;;;0.47;;
61756;SDS011;57225;61.460;24.060;2022-09-16T07:00:35;1.90;;;0.50;;
61756;SDS011;57225;61.460;24.060;2022-09-16T07:03:19;1.25;;;0.50;;
61756;SDS011;57225;61.460;24.060;2022-09-16T07:06:05;0.45;;;0.40;;
61756;SDS011;57225;61.460;24.060;2022-09-16T07:08:52;1.10;;;0.68;;
61756;SDS011;57225;61.460;24.060;2022-09-16T07:11:37;4.82;;;0.75;;
61756;SDS011;57225;61.460;24.060;2022-09-16T07:14:24;2.95;;;1.00;;
61756;SDS011;57225;61.460;24.060;2022-09-16T07:17:09;0.47;;;0.47;;
61756;SDS011;57225;61.460;24.060;2022-09-16T07:19:53;0.93;;;0.55;;
61756;SDS011;57225;61.460;24.060;2022-09-16T07:22:38;1.23;;;0.65;;
61756;SDS011;57225;61.460;24.060;2022-09-16T07:25:22;0.82;;;0.30;;
61756;SDS011;57225;61.460;24.060;2022-09-16T07:28:06;1.50;;;0.70;;
61756;SDS011;57225;61.460;24.060;2022-09-16T07:30:51;1.30;;;0.80;;
61756;SDS011;57225;61.460;24.060;2022-09-16T07:33:36;2.03;;;1.45;;
61756;SDS011;57225;61.460;24.060;2022-09-16T07:36:26;2.35;;;1.35;;
61756;SDS011;57225;61.460;24.060;2022-09-16T07:39:13;1.80;;;1.20;;
61756;SDS011;57225;61.460;24.060;2022-09-16T07:41:58;2.88;;;1.20;;
61756;SDS011;57225;61.460;24.060;2022-09-16T07:44:44;3.70;;;1.40;;
61756;SDS011;57225;61.460;24.060;2022-09-16T07:47:29;1.67;;;1.40;;
61756;SDS011;57225;61.460;24.060;2022-09-16T07:50:13;5.18;;;2.35;;
61756;SDS011;57225;61.460;24.060;2022-09-16T07:52:58;3.88;;;2.95;;
61756;SDS011;57225;61.460;24.060;2022-09-16T07:55:42;9.38;;;5.10;;
61756;SDS011;57225;61.460;24.060;2022-09-16T07:58:27;6.38;;;4.30;;
61756;SDS011;57225;61.460;24.060;2022-09-16T08:01:12;5.28;;;3.75;;
61756;SDS011;57225;61.460;24.060;2022-09-16T08:03:59;4.90;;;3.25;;
61756;SDS011;57225;61.460;24.060;2022-09-16T08:06:44;6.57;;;3.42;;
61756;SDS011;57225;61.460;24.060;2022-09-16T08:09:28;10.88;;;3.90;;
61756;SDS011;57225;61.460;24.060;2022-09-16T08:12:13;6.85;;;2.10;;
61756;SDS011;57225;61.460;24.060;2022-09-16T08:14:58;6.82;;;4.05;;
61756;SDS011;57225;61.460;24.060;2022-09-16T08:17:43;4.82;;;2.78;;
61756;SDS011;57225;61.460;24.060;2022-09-16T08:20:27;7.13;;;4.70;;
61756;SDS011;57225;61.460;24.060;2022-09-16T08:23:12;5.18;;;3.40;;
61756;SDS011;57225;61.460;24.060;2022-09-16T08:25:58;3.33;;;2.60;;
61756;SDS011;57225;61.460;24.060;2022-09-16T08:28:43;3.53;;;2.30;;
61756;SDS011;57225;61.460;24.060;2022-09-16T08:31:28;2.22;;;1.25;;
61756;SDS011;57225;61.460;24.060;2022-09-16T08:34:13;4.38;;;3.20;;
61756;SDS011;57225;61.460;24.060;2022-09-16T08:37:00;4.78;;;2.45;;
61756;SDS011;57225;61.460;24.060;2022-09-16T08:39:48;4.50;;;3.30;;
61756;SDS011;57225;61.460;24.060;2022-09-16T08:45:57;2.22;;;1.63;;
61756;SDS011;57225;61.460;24.060;2022-09-16T08:52:01;2.13;;;1.15;;
61756;SDS011;57225;61.460;24.060;2022-09-16T08:54:55;2.83;;;1.20;;
61756;SDS011;57225;61.460;24.060;2022-09-16T08:57:46;1.75;;;1.30;;
61756;SDS011;57225;61.460;24.060;2022-09-16T09:00:37;2.50;;;1.42;;
61756;SDS011;57225;61.460;24.060;2022-09-16T09:27:54;0.88;;;0.82;;
61756;SDS011;57225;61.460;24.060;2022-09-16T09:31:23;1.67;;;1.30;;
61756;SDS011;57225;61.460;24.060;2022-09-16T09:37:28;1.05;;;0.80;;
61756;SDS011;57225;61.460;24.060;2022-09-16T09:50:52;3.70;;;2.78;;
61756;SDS011;57225;61.460;24.060;2022-09-16T09:53:41;5.20;;;3.33;;
61756;SDS011;57225;61.460;24.060;2022-09-16T09:56:32;3.42;;;2.35;;
61756;SDS011;57225;61.460;24.060;2022-09-16T09:59:31;3.65;;;2.70;;
61756;SDS011;57225;61.460;24.060;2022-09-16T10:02:20;4.25;;;2.30;;
61756;SDS011;57225;61.460;24.060;2022-09-16T10:05:06;3.00;;;1.80;;
61756;SDS011;57225;61.460;24.060;2022-09-16T10:08:08;3.40;;;1.90;;
61756;SDS011;57225;61.460;24.060;2022-09-16T10:10:58;2.55;;;0.85;;
61756;SDS011;57225;61.460;24.060;2022-09-16T10:13:49;2.28;;;1.13;;
61756;SDS011;57225;61.460;24.060;2022-09-16T10:16:36;2.22;;;1.00;;
61756;SDS011;57225;61.460;24.060;2022-09-16T10:19:22;0.50;;;0.38;;
61756;SDS011;57225;61.460;24.060;2022-09-16T10:22:09;0.77;;;0.35;;
61756;SDS011;57225;61.460;24.060;2022-09-16T10:25:03;0.40;;;0.40;;
61756;SDS011;57225;61.460;24.060;2022-09-16T10:27:55;1.23;;;0.43;;
61756;SDS011;57225;61.460;24.060;2022-09-16T10:30:44;4.10;;;0.82;;
61756;SDS011;57225;61.460;24.060;2022-09-16T10:33:34;0.20;;;0.20;;
61756;SDS011;57225;61.460;24.060;2022-09-16T10:36:25;0.63;;;0.32;;
61756;SDS011;57225;61.460;24.060;2022-09-16T10:39:20;0.35;;;0.30;;
61756;SDS011;57225;61.460;24.060;2022-09-16T10:42:23;0.30;;;0.30;;
61756;SDS011;57225;61.460;24.060;2022-09-16T10:45:13;0.40;;;0.30;;
61756;SDS011;57225;61.460;24.060;2022-09-16T10:48:04;0.40;;;0.20;;
61756;SDS011;57225;61.460;24.060;2022-09-16T10:50:58;2.03;;;0.40;;
61756;SDS011;57225;61.460;24.060;2022-09-16T10:53:44;0.43;;;0.40;;
61756;SDS011;57225;61.460;24.060;2022-09-16T10:56:45;0.30;;;0.20;;
61756;SDS011;57225;61.460;24.060;2022-09-16T10:59:30;0.43;;;0.32;;
61756;SDS011;57225;61.460;24.060;2022-09-16T11:02:20;0.80;;;0.35;;
61756;SDS011;57225;61.460;24.060;2022-09-16T11:15:03;0.35;;;0.30;;
61756;SDS011;57225;61.460;24.060;2022-09-16T11:18:11;0.50;;;0.20;;
61756;SDS011;57225;61.460;24.060;2022-09-16T11:24:46;0.52;;;0.20;;
61756;SDS011;57225;61.460;24.060;2022-09-16T11:37:00;0.68;;;0.43;;
61756;SDS011;57225;61.460;24.060;2022-09-16T11:39:58;0.73;;;0.30;;
61756;SDS011;57225;61.460;24.060;2022-09-16T11:43:19;0.73;;;0.30;;
61756;SDS011;57225;61.460;24.060;2022-09-16T11:46:23;0.57;;;0.22;;
61756;SDS011;57225;61.460;24.060;2022-09-16T11:58:38;0.95;;;0.30;;
61756;SDS011;57225;61.460;24.060;2022-09-16T12:01:27;0.57;;;0.40;;
61756;SDS011;57225;61.460;24.060;2022-09-16T12:07:16;1.10;;;0.40;;
61756;SDS011;57225;61.460;24.060;2022-09-16T12:10:35;0.20;;;0.20;;
61756;SDS011;57225;61.460;24.060;2022-09-16T12:13:33;0.30;;;0.30;;
61756;SDS011;57225;61.460;24.060;2022-09-16T12:16:55;0.93;;;0.30;;
61756;SDS011;57225;61.460;24.060;2022-09-16T12:19:50;0.40;;;0.40;;
61756;SDS011;57225;61.460;24.060;2022-09-16T12:22:46;0.50;;;0.30;;
61756;SDS011;57225;61.460;24.060;2022-09-16T12:25:38;0.77;;;0.30;;
61756;SDS011;57225;61.460;24.060;2022-09-16T12:28:33;0.73;;;0.40;;
61756;SDS011;57225;61.460;24.060;2022-09-16T12:31:36;0.68;;;0.45;;
61756;SDS011;57225;61.460;24.060;2022-09-16T12:34:43;0.57;;;0.50;;
61756;SDS011;57225;61.460;24.060;2022-09-16T12:37:51;0.85;;;0.52;;
61756;SDS011;57225;61.460;24.060;2022-09-16T12:41:22;0.85;;;0.63;;
61756;SDS011;57225;61.460;24.060;2022-09-16T13:02:17;0.60;;;0.22;;
61756;SDS011;57225;61.460;24.060;2022-09-16T13:05:13;0.32;;;0.30;;
61756;SDS011;57225;61.460;24.060;2022-09-16T13:08:29;0.50;;;0.40;;
61756;SDS011;57225;61.460;24.060;2022-09-16T13:11:26;0.82;;;0.45;;
61756;SDS011;57225;61.460;24.060;2022-09-16T13:14:17;0.30;;;0.25;;
61756;SDS011;57225;61.460;24.060;2022-09-16T13:17:08;0.85;;;0.50;;
61756;SDS011;57225;61.460;24.060;2022-09-16T13:19:54;0.90;;;0.35;;
61756;SDS011;57225;61.460;24.060;2022-09-16T13:26:02;2.42;;;0.30;;
61756;SDS011;57225;61.460;24.060;2022-09-16T13:28:50;1.23;;;0.70;;
61756;SDS011;57225;61.460;24.060;2022-09-16T13:31:44;0.95;;;0.50;;
61756;SDS011;57225;61.460;24.060;2022-09-16T13:34:30;0.60;;;0.40;;
61756;SDS011;57225;61.460;24.060;2022-09-16T13:37:15;0.93;;;0.60;;
61756;SDS011;57225;61.460;24.060;2022-09-16T13:40:23;0.90;;;0.30;;
61756;SDS011;57225;61.460;24.060;2022-09-16T13:46:03;2.53;;;0.40;;
61756;SDS011;57225;61.460;24.060;2022-09-16T13:51:58;0.40;;;0.40;;
61756;SDS011;57225;61.460;24.060;2022-09-16T13:54:55;1.02;;;0.63;;
61756;SDS011;57225;61.460;24.060;2022-09-16T13:57:50;1.63;;;0.63;;
61756;SDS011;57225;61.460;24.060;2022-09-16T14:03:58;1.88;;;0.60;;
61756;SDS011;57225;61.460;24.060;2022-09-16T14:09:54;1.98;;;0.50;;
61756;SDS011;57225;61.460;24.060;2022-09-16T14:15:57;1.65;;;0.40;;
61756;SDS011;57225;61.460;24.060;2022-09-16T14:18:43;0.93;;;0.32;;
61756;SDS011;57225;61.460;24.060;2022-09-16T14:21:38;0.68;;;0.40;;
61756;SDS011;57225;61.460;24.060;2022-09-16T14:24:23;0.55;;;0.40;;
61756;SDS011;57225;61.460;24.060;2022-09-16T14:27:20;0.88;;;0.40;;
61756;SDS011;57225;61.460;24.060;2022-09-16T14:30:19;1.45;;;0.50;;
61756;SDS011;57225;61.460;24.060;2022-09-16T14:33:05;1.55;;;0.60;;
61756;SDS011;57225;61.460;24.060;2022-09-16T14:35:49;0.73;;;0.60;;
61756;SDS011;57225;61.460;24.060;2022-09-16T14:38:38;3.22;;;0.70;;
61756;SDS011;57225;61.460;24.060;2022-09-16T14:41:31;2.28;;;0.50;;
61756;SDS011;57225;61.460;24.060;2022-09-16T14:44:23;1.55;;;0.80;;
61756;SDS011;57225;61.460;24.060;2022-09-16T14:47:30;1.92;;;0.47;;
61756;SDS011;57225;61.460;24.060;2022-09-16T14:50:22;1.27;;;0.70;;
61756;SDS011;57225;61.460;24.060;2022-09-16T14:53:24;2.65;;;0.57;;
61756;SDS011;57225;61.460;24.060;2022-09-16T14:56:18;0.60;;;0.45;;
61756;SDS011;57225;61.460;24.060;2022-09-16T14:59:02;0.43;;;0.43;;
61756;SDS011;57225;61.460;24.060;2022-09-16T15:01:47;0.98;;;0.70;;
61756;SDS011;57225;61.460;24.060;2022-09-16T15:04:32;4.43;;;1.05;;
61756;SDS011;57225;61.460;24.060;2022-09-16T15:07:42;1.02;;;0.75;;
61756;SDS011;57225;61.460;24.060;2022-09-16T15:10:27;1.98;;;0.68;;
61756;SDS011;57225;61.460;24.060;2022-09-16T15:13:13;0.65;;;0.60;;
61756;SDS011;57225;61.460;24.060;2022-09-16T15:16:07;0.93;;;0.50;;
61756;SDS011;57225;61.460;24.060;2022-09-16T15:18:56;0.43;;;0.40;;
61756;SDS011;57225;61.460;24.060;2022-09-16T15:21:43;1.38;;;0.70;;
61756;SDS011;57225;61.460;24.060;2022-09-16T15:24:30;0.93;;;0.50;;
61756;SDS011;57225;61.460;24.060;2022-09-16T15:27:26;1.42;;;0.90;;
61756;SDS011;57225;61.460;24.060;2022-09-16T15:30:22;1.08;;;0.60;;
61756;SDS011;57225;61.460;24.060;2022-09-16T15:36:33;1.02;;;0.68;;
61756;SDS011;57225;61.460;24.060;2022-09-16T15:39:31;0.77;;;0.60;;
61756;SDS011;57225;61.460;24.060;2022-09-16T15:42:22;0.77;;;0.50;;
61756;SDS011;57225;61.460;24.060;2022-09-16T15:45:16;1.08;;;0.80;;
61756;SDS011;57225;61.460;24.060;2022-09-16T15:48:19;1.73;;;0.60;;
61756;SDS011;57225;61.460;24.060;2022-09-16T15:51:06;1.42;;;1.00;;
61756;SDS011;57225;61.460;24.060;2022-09-16T15:53:55;1.80;;;1.30;;
61756;SDS011;57225;61.460;24.060;2022-09-16T15:56:52;2.15;;;1.30;;
61756;SDS011;57225;61.460;24.060;2022-09-16T16:02:57;2.78;;;1.70;;
61756;SDS011;57225;61.460;24.060;2022-09-16T16:05:48;3.72;;;1.80;;
61756;SDS011;57225;61.460;24.060;2022-09-16T16:11:24;2.58;;;1.50;;
61756;SDS011;57225;61.460;24.060;2022-09-16T16:14:08;3.25;;;1.40;;
61756;SDS011;57225;61.460;24.060;2022-09-16T16:16:53;2.75;;;1.75;;
61756;SDS011;57225;61.460;24.060;2022-09-16T16:19:38;7.25;;;6.10;;
61756;SDS011;57225;61.460;24.060;2022-09-16T16:22:24;5.40;;;2.60;;
61756;SDS011;57225;61.460;24.060;2022-09-16T16:25:09;2.97;;;1.75;;
61756;SDS011;57225;61.460;24.060;2022-09-16T16:27:54;2.30;;;1.90;;
61756;SDS011;57225;61.460;24.060;2022-09-16T16:30:38;4.22;;;1.60;;
61756;SDS011;57225;61.460;24.060;2022-09-16T16:33:24;3.38;;;1.60;;
61756;SDS011;57225;61.460;24.060;2022-09-16T16:36:08;6.38;;;1.60;;
61756;SDS011;57225;61.460;24.060;2022-09-16T16:38:52;2.28;;;1.45;;
61756;SDS011;57225;61.460;24.060;2022-09-16T16:41:37;1.58;;;1.40;;
61756;SDS011;57225;61.460;24.060;2022-09-16T16:44:21;3.38;;;1.45;;
61756;SDS011;57225;61.460;24.060;2022-09-16T16:47:07;1.30;;;1.13;;
61756;SDS011;57225;61.460;24.060;2022-09-16T16:49:52;2.03;;;1.15;;
61756;SDS011;57225;61.460;24.060;2022-09-16T16:52:37;1.98;;;1.13;;
61756;SDS011;57225;61.460;24.060;2022-09-16T16:55:22;1.65;;;1.38;;
61756;SDS011;57225;61.460;24.060;2022-09-16T16:58:06;2.38;;;1.65;;
61756;SDS011;57225;61.460;24.060;2022-09-16T17:00:50;2.70;;;1.73;;
61756;SDS011;57225;61.460;24.060;2022-09-16T17:03:34;4.90;;;3.17;;
61756;SDS011;57225;61.460;24.060;2022-09-16T17:06:21;2.95;;;2.00;;
61756;SDS011;57225;61.460;24.060;2022-09-16T17:09:06;3.88;;;2.72;;
61756;SDS011;57225;61.460;24.060;2022-09-16T17:11:53;4.13;;;2.13;;
61756;SDS011;57225;61.460;24.060;2022-09-16T17:14:39;2.40;;;1.75;;
61756;SDS011;57225;61.460;24.060;2022-09-16T17:17:24;3.45;;;1.55;;
61756;SDS011;57225;61.460;24.060;2022-09-16T17:20:09;2.88;;;1.48;;
61756;SDS011;57225;61.460;24.060;2022-09-16T17:22:53;1.50;;;1.40;;
61756;SDS011;57225;61.460;24.060;2022-09-16T17:25:38;2.53;;;1.80;;
61756;SDS011;57225;61.460;24.060;2022-09-16T17:28:22;2.53;;;2.08;;
61756;SDS011;57225;61.460;24.060;2022-09-16T17:31:11;2.53;;;2.00;;
61756;SDS011;57225;61.460;24.060;2022-09-16T17:33:59;3.28;;;2.20;;
61756;SDS011;57225;61.460;24.060;2022-09-16T17:36:47;5.07;;;2.83;;
61756;SDS011;57225;61.460;24.060;2022-09-16T17:39:32;3.35;;;2.80;;
61756;SDS011;57225;61.460;24.060;2022-09-16T17:42:16;5.35;;;4.22;;
61756;SDS011;57225;61.460;24.060;2022-09-16T17:45:01;8.05;;;5.93;;
61756;SDS011;57225;61.460;24.060;2022-09-16T17:47:48;5.50;;;4.30;;
61756;SDS011;57225;61.460;24.060;2022-09-16T17:50:33;4.85;;;3.95;;
61756;SDS011;57225;61.460;24.060;2022-09-16T17:53:17;3.97;;;3.22;;
61756;SDS011;57225;61.460;24.060;2022-09-16T17:56:12;3.50;;;2.67;;
61756;SDS011;57225;61.460;24.060;2022-09-16T17:58:57;2.80;;;2.00;;
61756;SDS011;57225;61.460;24.060;2022-09-16T18:01:42;4.75;;;2.00;;
61756;SDS011;57225;61.460;24.060;2022-09-16T18:04:26;3.22;;;1.90;;
61756;SDS011;57225;61.460;24.060;2022-09-16T18:07:11;2.85;;;1.90;;
61756;SDS011;57225;61.460;24.060;2022-09-16T18:09:55;3.65;;;2.72;;
61756;SDS011;57225;61.460;24.060;2022-09-16T18:12:40;2.67;;;2.08;;
61756;SDS011;57225;61.460;24.060;2022-09-16T18:15:24;3.38;;;2.50;;
61756;SDS011;57225;61.460;24.060;2022-09-16T18:18:08;2.67;;;2.13;;
61756;SDS011;57225;61.460;24.060;2022-09-16T18:20:53;2.85;;;2.00;;
61756;SDS011;57225;61.460;24.060;2022-09-16T18:23:39;3.78;;;2.10;;
61756;SDS011;57225;61.460;24.060;2022-09-16T18:26:24;2.90;;;2.28;;
61756;SDS011;57225;61.460;24.060;2022-09-16T18:29:09;2.88;;;2.30;;
61756;SDS011;57225;61.460;24.060;2022-09-16T18:31:55;2.95;;;2.05;;
61756;SDS011;57225;61.460;24.060;2022-09-16T18:34:39;2.78;;;2.30;;
61756;SDS011;57225;61.460;24.060;2022-09-16T18:37:24;3.92;;;2.17;;
61756;SDS011;57225;61.460;24.060;2022-09-16T18:40:09;7.03;;;2.15;;
61756;SDS011;57225;61.460;24.060;2022-09-16T18:42:53;4.03;;;1.88;;
61756;SDS011;57225;61.460;24.060;2022-09-16T18:45:38;1.80;;;1.50;;
61756;SDS011;57225;61.460;24.060;2022-09-16T18:48:22;3.17;;;1.75;;
61756;SDS011;57225;61.460;24.060;2022-09-16T18:51:17;3.47;;;2.05;;
61756;SDS011;57225;61.460;24.060;2022-09-16T18:54:04;2.45;;;1.85;;
61756;SDS011;57225;61.460;24.060;2022-09-16T18:56:50;5.00;;;2.17;;
61756;SDS011;57225;61.460;24.060;2022-09-16T18:59:35;2.80;;;1.50;;
61756;SDS011;57225;61.460;24.060;2022-09-16T19:02:19;2.10;;;1.40;;
61756;SDS011;57225;61.460;24.060;2022-09-16T19:05:04;2.28;;;1.42;;
61756;SDS011;57225;61.460;24.060;2022-09-16T19:07:49;2.28;;;1.30;;
61756;SDS011;57225;61.460;24.060;2022-09-16T19:10:33;1.40;;;1.20;;
61756;SDS011;57225;61.460;24.060;2022-09-16T19:13:18;3.33;;;0.95;;
61756;SDS011;57225;61.460;24.060;2022-09-16T19:16:02;1.65;;;1.27;;
61756;SDS011;57225;61.460;24.060;2022-09-16T19:18:50;1.58;;;1.27;;
61756;SDS011;57225;61.460;24.060;2022-09-16T19:21:36;1.77;;;1.35;;
61756;SDS011;57225;61.460;24.060;2022-09-16T19:24:24;1.80;;;1.33;;
61756;SDS011;57225;61.460;24.060;2022-09-16T19:27:09;2.80;;;1.50;;
61756;SDS011;57225;61.460;24.060;2022-09-16T19:29:54;2.25;;;1.58;;